sensor_id;sensor_type;location;lat;lon;timestamp;pressure;altitude;pressure_sealevel;temperature
67509;BMP280;54354;44.724;11.284;2022-12-24T00:00:12;101504.81;;;16.90
67509;BMP280;54354;44.724;11.284;2022-12-24T00:02:38;101510.28;;;16.87
67509;BMP280;54354;44.724;11.284;2022-12-24T00:05:04;101491.97;;;16.85
67509;BMP280;54354;44.724;11.284;2022-12-24T00:07:30;101474.44;;;16.84
67509;BMP280;54354;44.724;11.284;2022-12-24T00:09:55;101461.81;;;16.85
67509;BMP280;54354;44.724;11.284;2022-12-24T00:12:21;101455.28;;;16.86
67509;BMP280;54354;44.724;11.284;2022-12-24T00:14:46;101459.44;;;16.87
67509;BMP280;54354;44.724;11.284;2022-12-24T00:17:12;101454.09;;;16.87
67509;BMP280;54354;44.724;11.284;2022-12-24T00:19:37;101445.63;;;16.88
67509;BMP280;54354;44.724;11.284;2022-12-24T00:22:03;101469.72;;;16.88
67509;BMP280;54354;44.724;11.284;2022-12-24T00:24:28;101498.72;;;16.90
67509;BMP280;54354;44.724;11.284;2022-12-24T00:26:54;101507.91;;;16.89
67509;BMP280;54354;44.724;11.284;2022-12-24T00:29:19;101502.56;;;16.89
67509;BMP280;54354;44.724;11.284;2022-12-24T00:31:45;101518.22;;;16.90
67509;BMP280;54354;44.724;11.284;2022-12-24T00:34:10;101517.78;;;16.92
67509;BMP280;54354;44.724;11.284;2022-12-24T00:36:36;101528.47;;;16.92
67509;BMP280;54354;44.724;11.284;2022-12-24T00:39:02;101525.34;;;16.93
67509;BMP280;54354;44.724;11.284;2022-12-24T00:41:27;101520.00;;;16.93
67509;BMP280;54354;44.724;11.284;2022-12-24T00:43:56;101532.34;;;16.91
67509;BMP280;54354;44.724;11.284;2022-12-24T00:46:23;101517.03;;;16.91
67509;BMP280;54354;44.724;11.284;2022-12-24T00:48:49;101498.59;;;16.93
67509;BMP280;54354;44.724;11.284;2022-12-24T00:51:15;101495.50;;;16.95
67509;BMP280;54354;44.724;11.284;2022-12-24T00:53:41;101489.41;;;16.94
67509;BMP280;54354;44.724;11.284;2022-12-24T00:56:07;101492.06;;;16.94
67509;BMP280;54354;44.724;11.284;2022-12-24T00:58:33;101490.16;;;16.95
67509;BMP280;54354;44.724;11.284;2022-12-24T01:00:59;101505.31;;;16.98
67509;BMP280;54354;44.724;11.284;2022-12-24T01:03:24;101525.25;;;16.97
67509;BMP280;54354;44.724;11.284;2022-12-24T01:06:28;101510.78;;;17.07
67509;BMP280;54354;44.724;11.284;2022-12-24T01:08:53;101511.00;;;17.00
67509;BMP280;54354;44.724;11.284;2022-12-24T01:11:19;101523.34;;;16.97
67509;BMP280;54354;44.724;11.284;2022-12-24T01:13:44;101520.66;;;16.97
67509;BMP280;54354;44.724;11.284;2022-12-24T01:16:15;101495.50;;;16.95
67509;BMP280;54354;44.724;11.284;2022-12-24T01:18:41;101482.47;;;16.97
67509;BMP280;54354;44.724;11.284;2022-12-24T01:21:06;101468.00;;;16.94
67509;BMP280;54354;44.724;11.284;2022-12-24T01:23:32;101476.78;;;16.95
67509;BMP280;54354;44.724;11.284;2022-12-24T01:26:01;101517.03;;;16.91
67509;BMP280;54354;44.724;11.284;2022-12-24T01:28:27;101550.53;;;16.96
67509;BMP280;54354;44.724;11.284;2022-12-24T01:30:53;101547.84;;;16.96
67509;BMP280;54354;44.724;11.284;2022-12-24T01:33:18;101564.19;;;16.98
67509;BMP280;54354;44.724;11.284;2022-12-24T01:35:44;101559.31;;;16.96
67509;BMP280;54354;44.724;11.284;2022-12-24T01:38:11;101545.59;;;16.94
67509;BMP280;54354;44.724;11.284;2022-12-24T01:40:38;101562.06;;;16.93
67509;BMP280;54354;44.724;11.284;2022-12-24T01:43:24;101550.63;;;16.92
67509;BMP280;54354;44.724;11.284;2022-12-24T01:46:13;101552.44;;;16.95
67509;BMP280;54354;44.724;11.284;2022-12-24T01:53:36;101540.22;;;16.94
67509;BMP280;54354;44.724;11.284;2022-12-24T01:56:04;101555.53;;;16.94
67509;BMP280;54354;44.724;11.284;2022-12-24T01:58:31;101571.16;;;16.95
67509;BMP280;54354;44.724;11.284;2022-12-24T02:00:59;101570.00;;;16.96
67509;BMP280;54354;44.724;11.284;2022-12-24T02:03:24;101576.84;;;16.97
67509;BMP280;54354;44.724;11.284;2022-12-24T02:05:53;101578.03;;;16.96
67509;BMP280;54354;44.724;11.284;2022-12-24T02:08:20;101585.50;;;17.01
67509;BMP280;54354;44.724;11.284;2022-12-24T02:10:46;101572.69;;;16.96
67509;BMP280;54354;44.724;11.284;2022-12-24T02:13:13;101557.78;;;16.95
67509;BMP280;54354;44.724;11.284;2022-12-24T02:16:07;101556.72;;;17.06
67509;BMP280;54354;44.724;11.284;2022-12-24T02:18:48;101587.13;;;16.99
67509;BMP280;54354;44.724;11.284;2022-12-24T02:24:26;101604.75;;;17.09
67509;BMP280;54354;44.724;11.284;2022-12-24T02:27:43;101607.69;;;17.02
67509;BMP280;54354;44.724;11.284;2022-12-24T02:30:05;101614.41;;;17.07
67509;BMP280;54354;44.724;11.284;2022-12-24T02:38:27;101604.88;;;17.06
67509;BMP280;54354;44.724;11.284;2022-12-24T02:41:16;101613.09;;;16.98
67509;BMP280;54354;44.724;11.284;2022-12-24T02:43:44;101601.66;;;16.98
67509;BMP280;54354;44.724;11.284;2022-12-24T02:46:15;101599.44;;;16.96
67509;BMP280;54354;44.724;11.284;2022-12-24T02:48:43;101592.91;;;16.97
67509;BMP280;54354;44.724;11.284;2022-12-24T02:51:10;101598.25;;;16.97
67509;BMP280;54354;44.724;11.284;2022-12-24T02:53:36;101588.72;;;16.96
67509;BMP280;54354;44.724;11.284;2022-12-24T03:04:14;101590.66;;;16.96
67509;BMP280;54354;44.724;11.284;2022-12-24T03:06:59;101586.34;;;16.98
67509;BMP280;54354;44.724;11.284;2022-12-24T03:12:37;101564.31;;;16.94
67509;BMP280;54354;44.724;11.284;2022-12-24T03:15:06;101556.72;;;16.93
67509;BMP280;54354;44.724;11.284;2022-12-24T03:17:35;101573.22;;;16.91
67509;BMP280;54354;44.724;11.284;2022-12-24T03:20:02;101563.47;;;16.97
67509;BMP280;54354;44.724;11.284;2022-12-24T03:22:29;101532.94;;;16.95
67509;BMP280;54354;44.724;11.284;2022-12-24T03:24:55;101535.22;;;16.96
67509;BMP280;54354;44.724;11.284;2022-12-24T03:27:21;101530.63;;;16.97
67509;BMP280;54354;44.724;11.284;2022-12-24T03:29:47;101539.38;;;16.97
67509;BMP280;54354;44.724;11.284;2022-12-24T03:32:12;101555.00;;;16.99
67509;BMP280;54354;44.724;11.284;2022-12-24T03:34:37;101550.09;;;16.97
67509;BMP280;54354;44.724;11.284;2022-12-24T03:37:03;101539.81;;;16.96
67509;BMP280;54354;44.724;11.284;2022-12-24T03:39:28;101540.22;;;16.94
67509;BMP280;54354;44.724;11.284;2022-12-24T03:41:54;101551.38;;;16.93
67509;BMP280;54354;44.724;11.284;2022-12-24T03:44:19;101573.53;;;16.93
67509;BMP280;54354;44.724;11.284;2022-12-24T03:46:45;101583.03;;;16.94
67509;BMP280;54354;44.724;11.284;2022-12-24T03:49:10;101583.47;;;16.93
67509;BMP280;54354;44.724;11.284;2022-12-24T03:51:36;101570.53;;;16.91
67509;BMP280;54354;44.724;11.284;2022-12-24T03:54:01;101567.84;;;16.91
67509;BMP280;54354;44.724;11.284;2022-12-24T03:56:26;101561.00;;;16.90
67509;BMP280;54354;44.724;11.284;2022-12-24T03:58:52;101556.06;;;16.89
67509;BMP280;54354;44.724;11.284;2022-12-24T04:01:18;101551.91;;;16.88
67509;BMP280;54354;44.724;11.284;2022-12-24T04:03:44;101550.09;;;16.85
67509;BMP280;54354;44.724;11.284;2022-12-24T04:06:15;101550.22;;;16.81
67509;BMP280;54354;44.724;11.284;2022-12-24T04:08:42;101545.16;;;16.83
67509;BMP280;54354;44.724;11.284;2022-12-24T04:11:09;101541.41;;;16.81
67509;BMP280;54354;44.724;11.284;2022-12-24T04:13:35;101544.88;;;16.81
67509;BMP280;54354;44.724;11.284;2022-12-24T04:16:06;101541.09;;;16.79
67509;BMP280;54354;44.724;11.284;2022-12-24T04:18:33;101545.28;;;16.80
67509;BMP280;54354;44.724;11.284;2022-12-24T04:20:59;101553.28;;;16.80
67509;BMP280;54354;44.724;11.284;2022-12-24T04:23:24;101558.97;;;16.82
67509;BMP280;54354;44.724;11.284;2022-12-24T04:25:50;101555.84;;;16.83
67509;BMP280;54354;44.724;11.284;2022-12-24T04:28:16;101556.59;;;16.84
67509;BMP280;54354;44.724;11.284;2022-12-24T04:30:42;101565.81;;;16.83
67509;BMP280;54354;44.724;11.284;2022-12-24T04:33:08;101572.38;;;16.82
67509;BMP280;54354;44.724;11.284;2022-12-24T04:35:38;101562.19;;;16.76
67509;BMP280;54354;44.724;11.284;2022-12-24T04:38:04;101566.66;;;16.80
67509;BMP280;54354;44.724;11.284;2022-12-24T04:40:30;101570.53;;;16.79
67509;BMP280;54354;44.724;11.284;2022-12-24T04:42:55;101575.88;;;16.79
67509;BMP280;54354;44.724;11.284;2022-12-24T04:45:21;101567.41;;;16.80
67509;BMP280;54354;44.724;11.284;2022-12-24T04:47:46;101559.41;;;16.80
67509;BMP280;54354;44.724;11.284;2022-12-24T04:50:12;101561.66;;;16.82
67509;BMP280;54354;44.724;11.284;2022-12-24T04:52:37;101541.72;;;16.83
67509;BMP280;54354;44.724;11.284;2022-12-24T04:55:03;101536.19;;;16.77
67509;BMP280;54354;44.724;11.284;2022-12-24T04:57:32;101540.44;;;16.74
67509;BMP280;54354;44.724;11.284;2022-12-24T05:00:00;101532.72;;;17.15
67509;BMP280;54354;44.724;11.284;2022-12-24T05:02:25;101529.22;;;16.92
67509;BMP280;54354;44.724;11.284;2022-12-24T05:04:51;101517.56;;;16.86
67509;BMP280;54354;44.724;11.284;2022-12-24T05:07:16;101521.06;;;16.83
67509;BMP280;54354;44.724;11.284;2022-12-24T05:09:42;101519.91;;;16.84
67509;BMP280;54354;44.724;11.284;2022-12-24T05:12:07;101515.72;;;16.83
67509;BMP280;54354;44.724;11.284;2022-12-24T05:14:33;101519.91;;;16.84
67509;BMP280;54354;44.724;11.284;2022-12-24T05:16:58;101508.91;;;16.82
67509;BMP280;54354;44.724;11.284;2022-12-24T05:19:23;101511.91;;;16.84
67509;BMP280;54354;44.724;11.284;2022-12-24T05:21:49;101513.72;;;16.87
67509;BMP280;54354;44.724;11.284;2022-12-24T05:24:34;101516.69;;;16.89
67509;BMP280;54354;44.724;11.284;2022-12-24T05:27:18;101509.84;;;16.88
67509;BMP280;54354;44.724;11.284;2022-12-24T05:29:44;101512.84;;;16.90
67509;BMP280;54354;44.724;11.284;2022-12-24T05:32:09;101499.03;;;16.92
67509;BMP280;54354;44.724;11.284;2022-12-24T05:34:35;101486.41;;;16.92
67509;BMP280;54354;44.724;11.284;2022-12-24T05:37:00;101499.03;;;16.92
67509;BMP280;54354;44.724;11.284;2022-12-24T05:39:26;101507.38;;;16.94
67509;BMP280;54354;44.724;11.284;2022-12-24T05:41:51;101506.19;;;16.95
67509;BMP280;54354;44.724;11.284;2022-12-24T05:44:17;101498.91;;;16.95
67509;BMP280;54354;44.724;11.284;2022-12-24T05:46:43;101496.25;;;16.95
67509;BMP280;54354;44.724;11.284;2022-12-24T05:49:09;101497.00;;;16.96
67509;BMP280;54354;44.724;11.284;2022-12-24T05:51:34;101504.59;;;16.97
67509;BMP280;54354;44.724;11.284;2022-12-24T05:54:00;101500.44;;;16.96
67509;BMP280;54354;44.724;11.284;2022-12-24T05:56:25;101492.41;;;16.96
67509;BMP280;54354;44.724;11.284;2022-12-24T05:58:52;101471.75;;;16.97
67509;BMP280;54354;44.724;11.284;2022-12-24T06:01:18;101482.00;;;16.98
67509;BMP280;54354;44.724;11.284;2022-12-24T06:03:44;101503.00;;;17.00
67509;BMP280;54354;44.724;11.284;2022-12-24T06:06:15;101512.94;;;16.99
67509;BMP280;54354;44.724;11.284;2022-12-24T06:08:43;101519.38;;;17.02
67509;BMP280;54354;44.724;11.284;2022-12-24T06:11:11;101530.50;;;17.00
67509;BMP280;54354;44.724;11.284;2022-12-24T06:13:38;101540.00;;;17.01
67509;BMP280;54354;44.724;11.284;2022-12-24T06:16:06;101540.00;;;17.01
67509;BMP280;54354;44.724;11.284;2022-12-24T06:18:33;101542.25;;;17.03
67509;BMP280;54354;44.724;11.284;2022-12-24T06:20:58;101553.69;;;17.03
67509;BMP280;54354;44.724;11.284;2022-12-24T06:23:25;101547.16;;;17.04
67509;BMP280;54354;44.724;11.284;2022-12-24T06:25:51;101546.41;;;17.04
67509;BMP280;54354;44.724;11.284;2022-12-24T06:28:17;101546.41;;;17.04
67509;BMP280;54354;44.724;11.284;2022-12-24T06:30:47;101538.84;;;17.02
67509;BMP280;54354;44.724;11.284;2022-12-24T06:33:13;101545.13;;;17.09
67509;BMP280;54354;44.724;11.284;2022-12-24T06:35:39;101551.38;;;17.06
67509;BMP280;54354;44.724;11.284;2022-12-24T06:38:04;101548.69;;;17.06
67509;BMP280;54354;44.724;11.284;2022-12-24T06:40:30;101554.44;;;17.04
67509;BMP280;54354;44.724;11.284;2022-12-24T06:42:55;101548.25;;;17.07
67509;BMP280;54354;44.724;11.284;2022-12-24T06:45:21;101542.91;;;17.07
67509;BMP280;54354;44.724;11.284;2022-12-24T06:47:47;101545.13;;;17.09
67509;BMP280;54354;44.724;11.284;2022-12-24T06:50:12;101557.81;;;17.08
67509;BMP280;54354;44.724;11.284;2022-12-24T06:52:38;101563.88;;;17.09
67509;BMP280;54354;44.724;11.284;2022-12-24T06:55:04;101560.13;;;17.06
67509;BMP280;54354;44.724;11.284;2022-12-24T06:57:30;101581.41;;;17.10
67509;BMP280;54354;44.724;11.284;2022-12-24T06:59:58;101588.31;;;17.11
67509;BMP280;54354;44.724;11.284;2022-12-24T07:02:24;101575.66;;;17.11
67509;BMP280;54354;44.724;11.284;2022-12-24T07:04:49;101583.56;;;17.15
67509;BMP280;54354;44.724;11.284;2022-12-24T07:07:18;101581.97;;;17.17
67509;BMP280;54354;44.724;11.284;2022-12-24T07:09:44;101573.47;;;17.19
67509;BMP280;54354;44.724;11.284;2022-12-24T07:12:09;101560.00;;;17.22
67509;BMP280;54354;44.724;11.284;2022-12-24T07:14:35;101550.06;;;17.23
67509;BMP280;54354;44.724;11.284;2022-12-24T07:17:00;101557.97;;;17.26
67509;BMP280;54354;44.724;11.284;2022-12-24T07:19:26;101555.28;;;17.26
67509;BMP280;54354;44.724;11.284;2022-12-24T07:21:51;101557.09;;;17.29
67509;BMP280;54354;44.724;11.284;2022-12-24T07:24:17;101565.88;;;17.30
67509;BMP280;54354;44.724;11.284;2022-12-24T07:26:42;101574.25;;;17.32
67509;BMP280;54354;44.724;11.284;2022-12-24T07:29:08;101570.38;;;17.33
67509;BMP280;54354;44.724;11.284;2022-12-24T07:31:33;101579.16;;;17.34
67509;BMP280;54354;44.724;11.284;2022-12-24T07:33:59;101579.16;;;17.34
67509;BMP280;54354;44.724;11.284;2022-12-24T07:36:25;101581.84;;;17.34
67509;BMP280;54354;44.724;11.284;2022-12-24T07:38:52;101571.13;;;17.34
67509;BMP280;54354;44.724;11.284;2022-12-24T07:41:18;101586.00;;;17.35
67509;BMP280;54354;44.724;11.284;2022-12-24T07:43:43;101590.53;;;17.38
67509;BMP280;54354;44.724;11.284;2022-12-24T07:46:09;101588.59;;;17.38
67509;BMP280;54354;44.724;11.284;2022-12-24T07:48:34;101585.78;;;17.42
67509;BMP280;54354;44.724;11.284;2022-12-24T07:51:00;101588.78;;;17.44
67509;BMP280;54354;44.724;11.284;2022-12-24T07:53:27;101604.84;;;17.44
67509;BMP280;54354;44.724;11.284;2022-12-24T07:55:53;101623.16;;;17.45
67509;BMP280;54354;44.724;11.284;2022-12-24T07:58:19;101612.88;;;17.44
67509;BMP280;54354;44.724;11.284;2022-12-24T08:00:44;101625.06;;;17.45
67509;BMP280;54354;44.724;11.284;2022-12-24T08:03:16;101630.00;;;17.46
67509;BMP280;54354;44.724;11.284;2022-12-24T08:05:42;101639.41;;;17.51
67509;BMP280;54354;44.724;11.284;2022-12-24T08:08:08;101642.44;;;17.53
67509;BMP280;54354;44.724;11.284;2022-12-24T08:10:33;101642.72;;;17.55
67509;BMP280;54354;44.724;11.284;2022-12-24T08:12:59;101634.28;;;17.56
67509;BMP280;54354;44.724;11.284;2022-12-24T08:15:24;101636.50;;;17.58
67509;BMP280;54354;44.724;11.284;2022-12-24T08:17:50;101625.06;;;17.57
67509;BMP280;54354;44.724;11.284;2022-12-24T08:20:15;101628.78;;;17.60
67509;BMP280;54354;44.724;11.284;2022-12-24T08:22:42;101629.66;;;17.57
67509;BMP280;54354;44.724;11.284;2022-12-24T08:25:08;101632.22;;;17.60
67509;BMP280;54354;44.724;11.284;2022-12-24T08:27:34;101638.00;;;17.59
67509;BMP280;54354;44.724;11.284;2022-12-24T08:30:00;101647.53;;;17.60
67509;BMP280;54354;44.724;11.284;2022-12-24T08:32:25;101647.88;;;17.62
67509;BMP280;54354;44.724;11.284;2022-12-24T08:34:51;101659.34;;;17.63
67509;BMP280;54354;44.724;11.284;2022-12-24T08:37:16;101658.13;;;17.64
67509;BMP280;54354;44.724;11.284;2022-12-24T08:39:42;101677.63;;;17.64
67509;BMP280;54354;44.724;11.284;2022-12-24T08:42:07;101673.47;;;17.63
67509;BMP280;54354;44.724;11.284;2022-12-24T08:44:32;101681.50;;;17.63
67509;BMP280;54354;44.724;11.284;2022-12-24T08:46:58;101681.81;;;17.65
67509;BMP280;54354;44.724;11.284;2022-12-24T08:49:23;101683.75;;;17.65
67509;BMP280;54354;44.724;11.284;2022-12-24T08:51:50;101688.34;;;17.64
67509;BMP280;54354;44.724;11.284;2022-12-24T08:54:15;101697.16;;;17.65
67509;BMP280;54354;44.724;11.284;2022-12-24T08:56:41;101720.06;;;17.66
67509;BMP280;54354;44.724;11.284;2022-12-24T08:59:06;101735.72;;;17.67
67509;BMP280;54354;44.724;11.284;2022-12-24T09:01:32;101735.72;;;17.67
67509;BMP280;54354;44.724;11.284;2022-12-24T09:04:00;101728.09;;;17.66
67509;BMP280;54354;44.724;11.284;2022-12-24T09:06:26;101734.88;;;17.70
67509;BMP280;54354;44.724;11.284;2022-12-24T09:08:51;101732.81;;;17.74
67509;BMP280;54354;44.724;11.284;2022-12-24T09:11:17;101710.63;;;17.74
67509;BMP280;54354;44.724;11.284;2022-12-24T09:13:44;101714.41;;;17.76
67509;BMP280;54354;44.724;11.284;2022-12-24T09:16:10;101728.81;;;17.79
67509;BMP280;54354;44.724;11.284;2022-12-24T09:18:36;101724.97;;;17.80
67509;BMP280;54354;44.724;11.284;2022-12-24T09:21:10;101739.13;;;17.80
67509;BMP280;54354;44.724;11.284;2022-12-24T09:23:39;101740.19;;;17.83
67509;BMP280;54354;44.724;11.284;2022-12-24T09:26:14;101739.47;;;17.82
67509;BMP280;54354;44.724;11.284;2022-12-24T09:28:40;101743.97;;;17.85
67509;BMP280;54354;44.724;11.284;2022-12-24T09:31:06;101755.69;;;17.88
67509;BMP280;54354;44.724;11.284;2022-12-24T09:33:36;101746.28;;;17.83
67509;BMP280;54354;44.724;11.284;2022-12-24T09:36:04;101742.78;;;17.86
67509;BMP280;54354;44.724;11.284;2022-12-24T09:38:30;101742.66;;;17.90
67509;BMP280;54354;44.724;11.284;2022-12-24T09:40:57;101741.06;;;17.93
67509;BMP280;54354;44.724;11.284;2022-12-24T09:43:28;101738.69;;;17.95
67509;BMP280;54354;44.724;11.284;2022-12-24T09:48:43;101750.34;;;18.01
67509;BMP280;54354;44.724;11.284;2022-12-24T09:51:15;101757.84;;;18.06
67509;BMP280;54354;44.724;11.284;2022-12-24T09:56:32;101759.41;;;18.51
67509;BMP280;54354;44.724;11.284;2022-12-24T09:59:04;101770.03;;;18.20
67509;BMP280;54354;44.724;11.284;2022-12-24T10:01:31;101762.13;;;18.16
67509;BMP280;54354;44.724;11.284;2022-12-24T10:04:02;101753.72;;;18.14
67509;BMP280;54354;44.724;11.284;2022-12-24T10:06:39;101758.84;;;18.56
67509;BMP280;54354;44.724;11.284;2022-12-24T10:12:15;101755.53;;;18.30
67509;BMP280;54354;44.724;11.284;2022-12-24T10:17:44;101744.16;;;18.26
67509;BMP280;54354;44.724;11.284;2022-12-24T10:28:30;101750.06;;;18.21
67509;BMP280;54354;44.724;11.284;2022-12-24T10:31:00;101747.09;;;18.19
67509;BMP280;54354;44.724;11.284;2022-12-24T10:33:35;101733.38;;;18.17
67509;BMP280;54354;44.724;11.284;2022-12-24T10:36:04;101740.97;;;18.18
67509;BMP280;54354;44.724;11.284;2022-12-24T10:38:31;101744.81;;;18.17
67509;BMP280;54354;44.724;11.284;2022-12-24T10:40:58;101749.78;;;18.19
67509;BMP280;54354;44.724;11.284;2022-12-24T10:43:27;101750.50;;;18.19
67509;BMP280;54354;44.724;11.284;2022-12-24T10:48:41;101758.13;;;18.21
67509;BMP280;54354;44.724;11.284;2022-12-24T10:51:20;101751.47;;;18.25
67509;BMP280;54354;44.724;11.284;2022-12-24T10:54:15;101758.75;;;18.25
67509;BMP280;54354;44.724;11.284;2022-12-24T10:56:42;101766.81;;;18.25
67509;BMP280;54354;44.724;11.284;2022-12-24T10:59:30;101769.06;;;18.26
67509;BMP280;54354;44.724;11.284;2022-12-24T11:01:58;101765.72;;;18.22
67509;BMP280;54354;44.724;11.284;2022-12-24T11:04:29;101773.91;;;18.19
67509;BMP280;54354;44.724;11.284;2022-12-24T11:07:04;101774.31;;;18.17
67509;BMP280;54354;44.724;11.284;2022-12-24T11:09:38;101780.41;;;18.17
67509;BMP280;54354;44.724;11.284;2022-12-24T11:15:06;101772.72;;;18.20
67509;BMP280;54354;44.724;11.284;2022-12-24T11:17:32;101765.41;;;18.20
67509;BMP280;54354;44.724;11.284;2022-12-24T11:19:58;101754.69;;;18.20
67509;BMP280;54354;44.724;11.284;2022-12-24T11:22:30;101749.13;;;18.14
67509;BMP280;54354;44.724;11.284;2022-12-24T11:25:18;101753.00;;;18.13
67509;BMP280;54354;44.724;11.284;2022-12-24T11:27:46;101760.91;;;18.17
67509;BMP280;54354;44.724;11.284;2022-12-24T11:32:45;101764.47;;;18.14
67509;BMP280;54354;44.724;11.284;2022-12-24T11:35:23;101767.34;;;18.20
67509;BMP280;54354;44.724;11.284;2022-12-24T11:40:32;101760.50;;;18.19
67509;BMP280;54354;44.724;11.284;2022-12-24T11:43:02;101763.31;;;18.15
67509;BMP280;54354;44.724;11.284;2022-12-24T11:45:30;101763.16;;;18.19
67509;BMP280;54354;44.724;11.284;2022-12-24T11:47:56;101772.31;;;18.21
67509;BMP280;54354;44.724;11.284;2022-12-24T11:55:50;101762.19;;;18.25
67509;BMP280;54354;44.724;11.284;2022-12-24T11:58:41;101763.47;;;18.21
67509;BMP280;54354;44.724;11.284;2022-12-24T12:04:00;101758.56;;;18.19
67509;BMP280;54354;44.724;11.284;2022-12-24T12:09:15;101747.41;;;18.21
67509;BMP280;54354;44.724;11.284;2022-12-24T12:11:44;101747.50;;;18.17
67509;BMP280;54354;44.724;11.284;2022-12-24T12:14:20;101752.56;;;18.15
67509;BMP280;54354;44.724;11.284;2022-12-24T12:17:00;101744.19;;;18.13
67509;BMP280;54354;44.724;11.284;2022-12-24T12:19:45;101738.53;;;18.11
67509;BMP280;54354;44.724;11.284;2022-12-24T12:22:28;101731.34;;;18.08
67509;BMP280;54354;44.724;11.284;2022-12-24T12:24:56;101734.75;;;18.08
67509;BMP280;54354;44.724;11.284;2022-12-24T12:27:34;101749.78;;;18.06
67509;BMP280;54354;44.724;11.284;2022-12-24T12:30:21;101746.03;;;18.16
67509;BMP280;54354;44.724;11.284;2022-12-24T12:33:00;101749.47;;;18.17
67509;BMP280;54354;44.724;11.284;2022-12-24T12:35:31;101740.06;;;18.12
67509;BMP280;54354;44.724;11.284;2022-12-24T12:38:03;101744.00;;;18.07
67509;BMP280;54354;44.724;11.284;2022-12-24T12:46:27;101721.63;;;18.01
67509;BMP280;54354;44.724;11.284;2022-12-24T12:51:39;101729.41;;;18.08
67509;BMP280;54354;44.724;11.284;2022-12-24T12:56:55;101757.09;;;18.05
67509;BMP280;54354;44.724;11.284;2022-12-24T12:59:35;101757.53;;;18.04
67509;BMP280;54354;44.724;11.284;2022-12-24T13:02:08;101753.66;;;18.05
67509;BMP280;54354;44.724;11.284;2022-12-24T13:18:58;101728.34;;;18.06
67509;BMP280;54354;44.724;11.284;2022-12-24T13:21:28;101744.13;;;18.04
67509;BMP280;54354;44.724;11.284;2022-12-24T13:24:05;101752.91;;;18.04
67509;BMP280;54354;44.724;11.284;2022-12-24T13:26:31;101761.56;;;18.08
67509;BMP280;54354;44.724;11.284;2022-12-24T13:29:50;101775.53;;;18.16
67509;BMP280;54354;44.724;11.284;2022-12-24T13:34:48;101797.38;;;18.14
67509;BMP280;54354;44.724;11.284;2022-12-24T13:50:45;101812.44;;;18.12
67509;BMP280;54354;44.724;11.284;2022-12-24T13:58:46;101790.66;;;18.10
67509;BMP280;54354;44.724;11.284;2022-12-24T14:03:43;101769.34;;;18.06
67509;BMP280;54354;44.724;11.284;2022-12-24T14:08:47;101758.47;;;18.10
67509;BMP280;54354;44.724;11.284;2022-12-24T14:11:19;101772.22;;;18.12
67509;BMP280;54354;44.724;11.284;2022-12-24T14:16:12;101787.31;;;18.19
67509;BMP280;54354;44.724;11.284;2022-12-24T14:18:41;101776.25;;;18.17
67509;BMP280;54354;44.724;11.284;2022-12-24T14:21:19;101775.84;;;18.18
67509;BMP280;54354;44.724;11.284;2022-12-24T14:26:24;101793.28;;;18.23
67509;BMP280;54354;44.724;11.284;2022-12-24T14:28:57;101787.81;;;18.26
67509;BMP280;54354;44.724;11.284;2022-12-24T14:31:24;101780.50;;;18.27
67509;BMP280;54354;44.724;11.284;2022-12-24T14:34:04;101772.16;;;18.25
67509;BMP280;54354;44.724;11.284;2022-12-24T14:36:30;101779.22;;;18.31
67509;BMP280;54354;44.724;11.284;2022-12-24T14:38:56;101789.63;;;18.29
67509;BMP280;54354;44.724;11.284;2022-12-24T14:41:44;101795.75;;;18.30
67509;BMP280;54354;44.724;11.284;2022-12-24T14:44:33;101804.97;;;18.29
67509;BMP280;54354;44.724;11.284;2022-12-24T14:50:35;101811.94;;;18.39
67509;BMP280;54354;44.724;11.284;2022-12-24T14:55:47;101820.19;;;18.32
67509;BMP280;54354;44.724;11.284;2022-12-24T14:58:27;101817.09;;;18.33
67509;BMP280;54354;44.724;11.284;2022-12-24T15:03:42;101825.25;;;18.30
67509;BMP280;54354;44.724;11.284;2022-12-24T15:06:09;101816.13;;;18.27
67509;BMP280;54354;44.724;11.284;2022-12-24T15:08:39;101828.34;;;18.28
67509;BMP280;54354;44.724;11.284;2022-12-24T15:11:08;101832.44;;;18.33
67509;BMP280;54354;44.724;11.284;2022-12-24T15:13:42;101842.09;;;18.30
67509;BMP280;54354;44.724;11.284;2022-12-24T15:16:12;101851.31;;;18.29
67509;BMP280;54354;44.724;11.284;2022-12-24T15:18:45;101848.63;;;18.29
67509;BMP280;54354;44.724;11.284;2022-12-24T15:21:32;101853.31;;;18.38
67509;BMP280;54354;44.724;11.284;2022-12-24T15:23:59;101850.41;;;18.32
67509;BMP280;54354;44.724;11.284;2022-12-24T15:26:33;101849.81;;;18.28
67509;BMP280;54354;44.724;11.284;2022-12-24T15:29:15;101847.88;;;18.29
67509;BMP280;54354;44.724;11.284;2022-12-24T15:31:44;101854.75;;;18.30
67509;BMP280;54354;44.724;11.284;2022-12-24T15:34:45;101847.88;;;18.29
67509;BMP280;54354;44.724;11.284;2022-12-24T15:37:11;101856.44;;;18.36
67509;BMP280;54354;44.724;11.284;2022-12-24T15:39:39;101857.84;;;18.28
67509;BMP280;54354;44.724;11.284;2022-12-24T15:42:07;101861.28;;;18.29
67509;BMP280;54354;44.724;11.284;2022-12-24T15:44:43;101868.25;;;18.26
67509;BMP280;54354;44.724;11.284;2022-12-24T15:47:15;101860.22;;;18.26
67509;BMP280;54354;44.724;11.284;2022-12-24T15:49:45;101869.44;;;18.25
67509;BMP280;54354;44.724;11.284;2022-12-24T15:52:23;101864.09;;;18.25
67509;BMP280;54354;44.724;11.284;2022-12-24T15:54:50;101855.69;;;18.23
67509;BMP280;54354;44.724;11.284;2022-12-24T15:57:29;101842.84;;;18.18
67509;BMP280;54354;44.724;11.284;2022-12-24T15:59:56;101853.91;;;18.20
67509;BMP280;54354;44.724;11.284;2022-12-24T16:02:35;101857.88;;;18.15
67509;BMP280;54354;44.724;11.284;2022-12-24T16:05:35;101855.41;;;18.21
67509;BMP280;54354;44.724;11.284;2022-12-24T16:08:18;101866.69;;;18.16